Dragonera — 9HA2475 — position and weather

sailwx.info

Track history (hours):
 
Tides and Currents Weather Stations Pressure Air Temp Water Temp Dewpoint Dewpoint Depression Visibility Wind Speed Wind Dir Waves Ship Positions

Dragonera

Last reported at 2017-Aug-12 03:47 UTC. Time now 2017-Aug-16 21:42 UTC.
Position N 27°13' W 015°31'.

Length 180 m; draft 9.5 m.

Type: Cargo ship. MMSI: 248698000.

Date/timePositionNaut miles runAvg speedWind from/ knotsBaromVisibWave heightAir tempDewpointWater temp
2017-Aug-12 03:47N 27°13' W 015°31'514.2
2017-Aug-12 03:25N 27°18' W 015°29'614.3
2017-Aug-12 02:58N 27°24' W 015°25'714.6
2017-Aug-12 02:30N 27°30' W 015°22'814.3
2017-Aug-12 01:56N 27°37' W 015°18'613.9
2017-Aug-12 01:30N 27°43' W 015°16'713.6
2017-Aug-12 01:00N 27°49' W 015°13'713.5
2017-Aug-12 00:30N 27°56' W 015°11'713.1
2017-Aug-12 00:00N 28°02' W 015°13'612.5
2017-Aug-11 23:30N 28°06' W 015°18'510.3
2017-Aug-11 23:00N 28°07' W 015°24'0 0.7
2017-Aug-11 22:24N 28°07' W 015°24'0 0.0
2017-Aug-11 21:54N 28°07' W 015°24'0 0.0
2017-Aug-11 21:30N 28°07' W 015°24'0 0.0
2017-Aug-11 21:00N 28°07' W 015°24'0 0.0
2017-Aug-11 20:30N 28°07' W 015°24'0 0.0
2017-Aug-11 20:00N 28°07' W 015°24'0 0.0
2017-Aug-11 19:30N 28°07' W 015°24'0 0.0
2017-Aug-11 19:00N 28°07' W 015°24'0 0.0
2017-Aug-11 18:30N 28°07' W 015°24'0 0.0
2017-Aug-11 18:00N 28°07' W 015°24'0 0.0
2017-Aug-11 17:30N 28°07' W 015°24'0 0.0
2017-Aug-11 16:57N 28°07' W 015°24'0 0.0
2017-Aug-11 16:30N 28°07' W 015°24'0 0.0
2017-Aug-11 16:00N 28°07' W 015°24'0 0.0
2017-Aug-11 15:30N 28°07' W 015°24'0 0.0
2017-Aug-11 15:00N 28°07' W 015°24'0 0.0
2017-Aug-11 14:21N 28°07' W 015°24'0 0.0
2017-Aug-11 13:21N 28°07' W 015°24'0 0.0
2017-Aug-11 12:51N 28°07' W 015°24'0 0.0
2017-Aug-11 12:21N 28°07' W 015°24'0 0.1
2017-Aug-11 11:51N 28°07' W 015°24'0 0.2
2017-Aug-11 11:22N 28°07' W 015°24'1 2.3
2017-Aug-11 11:00N 28°07' W 015°24'4 8.1
2017-Aug-11 10:30N 28°09' W 015°20'4 7.3
2017-Aug-11 10:00N 28°12' W 015°16'612.3
2017-Aug-11 09:30N 28°16' W 015°11'713.4
2017-Aug-11 09:00N 28°20' W 015°05'713.5
2017-Aug-11 08:30N 28°25' W 015°00'713.3
2017-Aug-11 08:00N 28°30' W 014°55'713.2
2017-Aug-11 07:29N 28°35' W 014°50'613.4
2017-Aug-11 07:00N 28°40' W 014°45'913.4
2017-Aug-11 06:18N 28°47' W 014°39'513.7
2017-Aug-11 05:58N 28°51' W 014°35'613.7
2017-Aug-11 05:30N 28°56' W 014°31'713.6
2017-Aug-11 05:00N 29°01' W 014°25'713.4
2017-Aug-11 04:30N 29°06' W 014°20'2013.6
2017-Aug-11 03:01N 29°21' W 014°05'313.4
2017-Aug-11 02:47N 29°24' W 014°03'713.4
2017-Aug-11 02:18N 29°29' W 013°58'713.2
2017-Aug-11 01:44N 29°34' W 013°53'413.0
2017-Aug-11 01:25N 29°37' W 013°50'613.3
2017-Aug-11 00:58N 29°42' W 013°45'713.2
2017-Aug-11 00:27N 29°47' W 013°40'613.5
2017-Aug-11 00:00N 29°51' W 013°34'813.5
2017-Aug-10 23:24N 29°56' W 013°27'513.5
2017-Aug-10 23:00N 29°59' W 013°22'713.4
2017-Aug-10 22:30N 30°03' W 013°16'713.5
2017-Aug-10 22:00N 30°07' W 013°10'714.0
2017-Aug-10 21:29N 30°12' W 013°03'714.0
2017-Aug-10 20:58N 30°16' W 012°57'713.9
2017-Aug-10 20:30N 30°20' W 012°51'713.7
2017-Aug-10 20:00N 30°25' W 012°45'713.4
2017-Aug-10 19:30N 30°29' W 012°39'713.4
2017-Aug-10 19:00N 30°33' W 012°32'713.2
2017-Aug-10 18:28N 30°37' W 012°26'613.3
2017-Aug-10 18:00N 30°41' W 012°20'713.8
2017-Aug-10 17:30N 30°45' W 012°14'713.7
2017-Aug-10 17:01N 30°50' W 012°08'713.3
2017-Aug-10 16:31N 30°54' W 012°02'713.0
2017-Aug-10 16:01N 30°58' W 011°56'712.9
2017-Aug-10 15:30N 31°02' W 011°50'813.3
2017-Aug-10 14:55N 31°06' W 011°43'613.2
2017-Aug-10 14:30N 31°10' W 011°38'613.1
2017-Aug-10 14:01N 31°14' W 011°32'612.8
2017-Aug-10 13:31N 31°18' W 011°26'612.7
2017-Aug-10 13:00N 31°22' W 011°20'612.3
2017-Aug-10 12:30N 31°25' W 011°14'1212.1
2017-Aug-10 11:33N 31°33' W 011°04'212.6
2017-Aug-10 11:22N 31°34' W 011°02'3013.1
2017-Aug-10 09:07N 31°52' W 010°34'1712.9
2017-Aug-10 07:49N 32°02' W 010°18'513.0
2017-Aug-10 07:28N 32°03' W 010°13'1013.3
2017-Aug-10 06:43N 32°07' W 010°02'613.2
2017-Aug-10 06:16N 32°09' W 009°55'36 6.4
2017-Aug-10 00:41N 32°19' W 009°15'0 0.0
2017-Aug-10 00:29N 32°19' W 009°15'0 0.0
2017-Aug-09 23:59N 32°19' W 009°15'0 0.0
2017-Aug-09 23:29N 32°19' W 009°15'0 0.0
2017-Aug-09 19:47N 32°19' W 009°15'0 0.0
2017-Aug-09 19:14N 32°19' W 009°15'0 0.0
2017-Aug-09 18:50N 32°19' W 009°15'0 0.0
2017-Aug-09 18:17N 32°19' W 009°15'0 0.0
2017-Aug-09 17:59N 32°19' W 009°15'0 0.0
2017-Aug-09 17:20N 32°19' W 009°15'0 0.0
2017-Aug-09 16:50N 32°19' W 009°15'0 0.0
2017-Aug-09 16:23N 32°19' W 009°15'0 0.0
2017-Aug-09 15:50N 32°19' W 009°15'0 0.0
2017-Aug-09 15:23N 32°19' W 009°15'0 0.0
2017-Aug-09 13:53N 32°19' W 009°15'0 0.0
2017-Aug-09 12:23N 32°19' W 009°15'0 0.0
2017-Aug-09 11:56N 32°19' W 009°15'0 0.0
2017-Aug-09 11:26N 32°19' W 009°15'0 0.0
2017-Aug-09 08:56N 32°19' W 009°15'0 0.0
2017-Aug-09 08:26N 32°19' W 009°15'0 0.0
2017-Aug-09 06:47N 32°19' W 009°15'0 0.0
2017-Aug-09 06:17N 32°19' W 009°15'0 0.0
2017-Aug-09 05:59N 32°19' W 009°15'0 0.0
2017-Aug-09 05:29N 32°19' W 009°15'0 0.0
2017-Aug-09 04:35N 32°19' W 009°15'0 0.0
2017-Aug-09 04:20N 32°19' W 009°15'0 0.0
2017-Aug-09 03:50N 32°19' W 009°15'0 0.0
2017-Aug-08 18:26N 32°19' W 009°15'0 0.0
2017-Aug-08 16:14N 32°19' W 009°15'0 0.0
2017-Aug-08 15:59N 32°19' W 009°15'0 0.0
2017-Aug-08 14:32N 32°19' W 009°15'0 0.0
2017-Aug-08 14:17N 32°19' W 009°15'0 0.0
2017-Aug-08 02:41N 32°19' W 009°15'0 0.0
2017-Aug-08 02:11N 32°19' W 009°15'0 0.0
2017-Aug-08 01:44N 32°19' W 009°15'0 0.0
2017-Aug-08 01:14N 32°19' W 009°15'0 0.0
2017-Aug-07 15:20N 32°19' W 009°15'0 0.0
2017-Aug-06 15:05N 32°19' W 009°15'0 0.0
2017-Aug-06 14:50N 32°19' W 009°15'0 0.0
2017-Aug-06 14:20N 32°19' W 009°15'0 0.0
2017-Aug-06 13:17N 32°19' W 009°15'0 0.0
2017-Aug-06 12:08N 32°19' W 009°15'0 0.0
2017-Aug-06 11:53N 32°19' W 009°15'0 0.0
2017-Aug-06 06:59N 32°19' W 009°15'0 0.0
2017-Aug-06 06:23N 32°19' W 009°15'0 0.0
2017-Aug-06 05:59N 32°19' W 009°15'0 0.0
2017-Aug-06 04:02N 32°19' W 009°15'0 0.0
2017-Aug-06 03:59N 32°19' W 009°15'0 0.0
2017-Aug-06 03:17N 32°19' W 009°15'0 0.0
2017-Aug-06 02:59N 32°19' W 009°15'0 0.0
2017-Aug-06 02:29N 32°19' W 009°15'0 0.0
2017-Aug-05 18:11N 32°19' W 009°15'0 0.0
2017-Aug-05 16:08N 32°19' W 009°15'0 0.0
2017-Aug-05 15:59N 32°19' W 009°15'0 0.0
2017-Aug-05 15:29N 32°19' W 009°15'0 0.0
2017-Aug-05 14:56N 32°19' W 009°15'0 0.0
2017-Aug-05 14:29N 32°19' W 009°15'0 0.0
2017-Aug-05 13:59N 32°19' W 009°15'0 0.0
2017-Aug-05 11:47N 32°19' W 009°15'0 0.0
2017-Aug-05 08:35N 32°19' W 009°15'0 0.0
2017-Aug-05 08:20N 32°19' W 009°15'0 0.0
2017-Aug-05 00:14N 32°19' W 009°15'0 0.0
2017-Aug-04 21:47N 32°19' W 009°15'0 0.0
2017-Aug-04 19:47N 32°19' W 009°15'0 0.0
2017-Aug-04 19:17N 32°19' W 009°15'0 0.0
2017-Aug-04 18:50N 32°19' W 009°15'0 0.0
2017-Aug-04 18:31N 32°19' W 009°15'1 1.6
2017-Aug-04 18:01N 32°19' W 009°16'3 5.1
2017-Aug-04 17:30N 32°17' W 009°18'2 2.7
2017-Aug-04 16:54N 32°16' W 009°19'0 0.1
2017-Aug-04 16:30N 32°16' W 009°19'0 0.0
2017-Aug-04 15:24N 32°16' W 009°19'0 0.0
2017-Aug-04 15:00N 32°16' W 009°19'0 0.0
2017-Aug-04 13:54N 32°16' W 009°19'0 0.0
2017-Aug-03 19:54N 32°16' W 009°19'0 0.0
2017-Aug-03 17:03N 32°16' W 009°19'0 0.1
2017-Aug-03 17:00N 32°16' W 009°19'0 0.0
2017-Aug-03 09:15N 32°16' W 009°19'1 1.2
2017-Aug-03 08:38N 32°16' W 009°20'0 3.7
2017-Aug-03 08:31N 32°15' W 009°20'5 5.9
2017-Aug-03 07:41N 32°20' W 009°21'1 8.2
2017-Aug-03 07:31N 32°20' W 009°23'18013.3
2017-Aug-02 17:59N 34°51' W 007°27'713.8
2017-Aug-02 17:28N 34°57' W 007°21'4413.7
2017-Aug-02 14:14N 35°26' W 006°41'6212.5
2017-Aug-02 09:19N 35°58' W 005°35'711.8
2017-Aug-02 08:45N 35°60' W 005°27'311.3
2017-Aug-02 08:29N 36°01' W 005°24'510.7
2017-Aug-02 08:00N 36°02' W 005°18'510.9
2017-Aug-02 07:30N 36°04' W 005°11'2011.4
2017-Aug-02 05:45N 36°07' W 004°47'  
Track history (hours):
 
Tides and Currents Weather Stations Pressure Air Temp Water Temp Dewpoint Dewpoint Depression Visibility Wind Speed Wind Dir Waves Ship Positions

Dragonera

Last reported at 2017-Aug-12 03:47 UTC. Time now 2017-Aug-16 21:42 UTC.
Position N 27°13' W 015°31'.

Length 180 m; draft 9.5 m.

Type: Cargo ship. MMSI: 248698000.

Date/timePositionNaut miles runAvg speedWind from/ knotsBaromVisibWave heightAir tempDewpointWater temp
2017-Aug-12 03:47N 27°13' W 015°31'514.2
2017-Aug-12 03:25N 27°18' W 015°29'614.3
2017-Aug-12 02:58N 27°24' W 015°25'714.6
2017-Aug-12 02:30N 27°30' W 015°22'814.3
2017-Aug-12 01:56N 27°37' W 015°18'613.9
2017-Aug-12 01:30N 27°43' W 015°16'713.6
2017-Aug-12 01:00N 27°49' W 015°13'713.5
2017-Aug-12 00:30N 27°56' W 015°11'713.1
2017-Aug-12 00:00N 28°02' W 015°13'612.5
2017-Aug-11 23:30N 28°06' W 015°18'510.3
2017-Aug-11 23:00N 28°07' W 015°24'0 0.7
2017-Aug-11 22:24N 28°07' W 015°24'0 0.0
2017-Aug-11 21:54N 28°07' W 015°24'0 0.0
2017-Aug-11 21:30N 28°07' W 015°24'0 0.0
2017-Aug-11 21:00N 28°07' W 015°24'0 0.0
2017-Aug-11 20:30N 28°07' W 015°24'0 0.0
2017-Aug-11 20:00N 28°07' W 015°24'0 0.0
2017-Aug-11 19:30N 28°07' W 015°24'0 0.0
2017-Aug-11 19:00N 28°07' W 015°24'0 0.0
2017-Aug-11 18:30N 28°07' W 015°24'0 0.0
2017-Aug-11 18:00N 28°07' W 015°24'0 0.0
2017-Aug-11 17:30N 28°07' W 015°24'0 0.0
2017-Aug-11 16:57N 28°07' W 015°24'0 0.0
2017-Aug-11 16:30N 28°07' W 015°24'0 0.0
2017-Aug-11 16:00N 28°07' W 015°24'0 0.0
2017-Aug-11 15:30N 28°07' W 015°24'0 0.0
2017-Aug-11 15:00N 28°07' W 015°24'0 0.0
2017-Aug-11 14:21N 28°07' W 015°24'0 0.0
2017-Aug-11 13:21N 28°07' W 015°24'0 0.0
2017-Aug-11 12:51N 28°07' W 015°24'0 0.0
2017-Aug-11 12:21N 28°07' W 015°24'0 0.1
2017-Aug-11 11:51N 28°07' W 015°24'0 0.2
2017-Aug-11 11:22N 28°07' W 015°24'1 2.3
2017-Aug-11 11:00N 28°07' W 015°24'4 8.1
2017-Aug-11 10:30N 28°09' W 015°20'4 7.3
2017-Aug-11 10:00N 28°12' W 015°16'612.3
2017-Aug-11 09:30N 28°16' W 015°11'713.4
2017-Aug-11 09:00N 28°20' W 015°05'713.5
2017-Aug-11 08:30N 28°25' W 015°00'713.3
2017-Aug-11 08:00N 28°30' W 014°55'713.2
2017-Aug-11 07:29N 28°35' W 014°50'613.4
2017-Aug-11 07:00N 28°40' W 014°45'913.4
2017-Aug-11 06:18N 28°47' W 014°39'513.7
2017-Aug-11 05:58N 28°51' W 014°35'613.7
2017-Aug-11 05:30N 28°56' W 014°31'713.6
2017-Aug-11 05:00N 29°01' W 014°25'713.4
2017-Aug-11 04:30N 29°06' W 014°20'2013.6
2017-Aug-11 03:01N 29°21' W 014°05'313.4
2017-Aug-11 02:47N 29°24' W 014°03'713.4
2017-Aug-11 02:18N 29°29' W 013°58'713.2
2017-Aug-11 01:44N 29°34' W 013°53'413.0
2017-Aug-11 01:25N 29°37' W 013°50'613.3
2017-Aug-11 00:58N 29°42' W 013°45'713.2
2017-Aug-11 00:27N 29°47' W 013°40'613.5
2017-Aug-11 00:00N 29°51' W 013°34'813.5
2017-Aug-10 23:24N 29°56' W 013°27'513.5
2017-Aug-10 23:00N 29°59' W 013°22'713.4
2017-Aug-10 22:30N 30°03' W 013°16'713.5
2017-Aug-10 22:00N 30°07' W 013°10'714.0
2017-Aug-10 21:29N 30°12' W 013°03'714.0
2017-Aug-10 20:58N 30°16' W 012°57'713.9
2017-Aug-10 20:30N 30°20' W 012°51'713.7
2017-Aug-10 20:00N 30°25' W 012°45'713.4
2017-Aug-10 19:30N 30°29' W 012°39'713.4
2017-Aug-10 19:00N 30°33' W 012°32'713.2
2017-Aug-10 18:28N 30°37' W 012°26'613.3
2017-Aug-10 18:00N 30°41' W 012°20'713.8
2017-Aug-10 17:30N 30°45' W 012°14'713.7
2017-Aug-10 17:01N 30°50' W 012°08'713.3
2017-Aug-10 16:31N 30°54' W 012°02'713.0
2017-Aug-10 16:01N 30°58' W 011°56'712.9
2017-Aug-10 15:30N 31°02' W 011°50'813.3
2017-Aug-10 14:55N 31°06' W 011°43'613.2
2017-Aug-10 14:30N 31°10' W 011°38'613.1
2017-Aug-10 14:01N 31°14' W 011°32'612.8
2017-Aug-10 13:31N 31°18' W 011°26'612.7
2017-Aug-10 13:00N 31°22' W 011°20'612.3
2017-Aug-10 12:30N 31°25' W 011°14'1212.1
2017-Aug-10 11:33N 31°33' W 011°04'212.6
2017-Aug-10 11:22N 31°34' W 011°02'3013.1
2017-Aug-10 09:07N 31°52' W 010°34'1712.9
2017-Aug-10 07:49N 32°02' W 010°18'513.0
2017-Aug-10 07:28N 32°03' W 010°13'1013.3
2017-Aug-10 06:43N 32°07' W 010°02'613.2
2017-Aug-10 06:16N 32°09' W 009°55'36 6.4
2017-Aug-10 00:41N 32°19' W 009°15'0 0.0
2017-Aug-10 00:29N 32°19' W 009°15'0 0.0
2017-Aug-09 23:59N 32°19' W 009°15'0 0.0
2017-Aug-09 23:29N 32°19' W 009°15'0 0.0
2017-Aug-09 19:47N 32°19' W 009°15'0 0.0
2017-Aug-09 19:14N 32°19' W 009°15'0 0.0
2017-Aug-09 18:50N 32°19' W 009°15'0 0.0
2017-Aug-09 18:17N 32°19' W 009°15'0 0.0
2017-Aug-09 17:59N 32°19' W 009°15'0 0.0
2017-Aug-09 17:20N 32°19' W 009°15'0 0.0
2017-Aug-09 16:50N 32°19' W 009°15'0 0.0
2017-Aug-09 16:23N 32°19' W 009°15'0 0.0
2017-Aug-09 15:50N 32°19' W 009°15'0 0.0
2017-Aug-09 15:23N 32°19' W 009°15'0 0.0
2017-Aug-09 13:53N 32°19' W 009°15'0 0.0
2017-Aug-09 12:23N 32°19' W 009°15'0 0.0
2017-Aug-09 11:56N 32°19' W 009°15'0 0.0
2017-Aug-09 11:26N 32°19' W 009°15'0 0.0
2017-Aug-09 08:56N 32°19' W 009°15'0 0.0
2017-Aug-09 08:26N 32°19' W 009°15'0 0.0
2017-Aug-09 06:47N 32°19' W 009°15'0 0.0
2017-Aug-09 06:17N 32°19' W 009°15'0 0.0
2017-Aug-09 05:59N 32°19' W 009°15'0 0.0
2017-Aug-09 05:29N 32°19' W 009°15'0 0.0
2017-Aug-09 04:35N 32°19' W 009°15'0 0.0
2017-Aug-09 04:20N 32°19' W 009°15'0 0.0
2017-Aug-09 03:50N 32°19' W 009°15'0 0.0
2017-Aug-08 18:26N 32°19' W 009°15'0 0.0
2017-Aug-08 16:14N 32°19' W 009°15'0 0.0
2017-Aug-08 15:59N 32°19' W 009°15'0 0.0
2017-Aug-08 14:32N 32°19' W 009°15'0 0.0
2017-Aug-08 14:17N 32°19' W 009°15'0 0.0
2017-Aug-08 02:41N 32°19' W 009°15'0 0.0
2017-Aug-08 02:11N 32°19' W 009°15'0 0.0
2017-Aug-08 01:44N 32°19' W 009°15'0 0.0
2017-Aug-08 01:14N 32°19' W 009°15'0 0.0
2017-Aug-07 15:20N 32°19' W 009°15'0 0.0
2017-Aug-06 15:05N 32°19' W 009°15'0 0.0
2017-Aug-06 14:50N 32°19' W 009°15'0 0.0
2017-Aug-06 14:20N 32°19' W 009°15'0 0.0
2017-Aug-06 13:17N 32°19' W 009°15'0 0.0
2017-Aug-06 12:08N 32°19' W 009°15'0 0.0
2017-Aug-06 11:53N 32°19' W 009°15'0 0.0
2017-Aug-06 06:59N 32°19' W 009°15'0 0.0
2017-Aug-06 06:23N 32°19' W 009°15'0 0.0
2017-Aug-06 05:59N 32°19' W 009°15'0 0.0
2017-Aug-06 04:02N 32°19' W 009°15'0 0.0
2017-Aug-06 03:59N 32°19' W 009°15'0 0.0
2017-Aug-06 03:17N 32°19' W 009°15'0 0.0
2017-Aug-06 02:59N 32°19' W 009°15'0 0.0
2017-Aug-06 02:29N 32°19' W 009°15'0 0.0
2017-Aug-05 18:11N 32°19' W 009°15'0 0.0
2017-Aug-05 16:08N 32°19' W 009°15'0 0.0
2017-Aug-05 15:59N 32°19' W 009°15'0 0.0
2017-Aug-05 15:29N 32°19' W 009°15'0 0.0
2017-Aug-05 14:56N 32°19' W 009°15'0 0.0
2017-Aug-05 14:29N 32°19' W 009°15'0 0.0
2017-Aug-05 13:59N 32°19' W 009°15'0 0.0
2017-Aug-05 11:47N 32°19' W 009°15'0 0.0
2017-Aug-05 08:35N 32°19' W 009°15'0 0.0
2017-Aug-05 08:20N 32°19' W 009°15'0 0.0
2017-Aug-05 00:14N 32°19' W 009°15'0 0.0
2017-Aug-04 21:47N 32°19' W 009°15'0 0.0
2017-Aug-04 19:47N 32°19' W 009°15'0 0.0
2017-Aug-04 19:17N 32°19' W 009°15'0 0.0
2017-Aug-04 18:50N 32°19' W 009°15'0 0.0
2017-Aug-04 18:31N 32°19' W 009°15'1 1.6
2017-Aug-04 18:01N 32°19' W 009°16'3 5.1
2017-Aug-04 17:30N 32°17' W 009°18'2 2.7
2017-Aug-04 16:54N 32°16' W 009°19'0 0.1
2017-Aug-04 16:30N 32°16' W 009°19'0 0.0
2017-Aug-04 15:24N 32°16' W 009°19'0 0.0
2017-Aug-04 15:00N 32°16' W 009°19'0 0.0
2017-Aug-04 13:54N 32°16' W 009°19'0 0.0
2017-Aug-03 19:54N 32°16' W 009°19'0 0.0
2017-Aug-03 17:03N 32°16' W 009°19'0 0.1
2017-Aug-03 17:00N 32°16' W 009°19'0 0.0
2017-Aug-03 09:15N 32°16' W 009°19'1 1.2
2017-Aug-03 08:38N 32°16' W 009°20'0 3.7
2017-Aug-03 08:31N 32°15' W 009°20'5 5.9
2017-Aug-03 07:41N 32°20' W 009°21'1 8.2
2017-Aug-03 07:31N 32°20' W 009°23'18013.3
2017-Aug-02 17:59N 34°51' W 007°27'713.8
2017-Aug-02 17:28N 34°57' W 007°21'4413.7
2017-Aug-02 14:14N 35°26' W 006°41'6212.5
2017-Aug-02 09:19N 35°58' W 005°35'711.8
2017-Aug-02 08:45N 35°60' W 005°27'311.3
2017-Aug-02 08:29N 36°01' W 005°24'510.7
2017-Aug-02 08:00N 36°02' W 005°18'510.9
2017-Aug-02 07:30N 36°04' W 005°11'2011.4
2017-Aug-02 05:45N 36°07' W 004°47'  

Dump ship's entire track history